Time;durP1;ratioP1;P1;durP2;ratioP2;P2;SDS_P1;SDS_P2;PMS_P1;PMS_P2;Temp;Humidity;BMP_temperature;BMP_pressure;BME280_temperature;BME280_humidity;BME280_pressure;Samples;Min_cycle;Max_cycle;Signal;HPM_P1;HPM_P2
2024/04/04 00:00:52;;;;;;;2.00;0.67;;;;;;;11.66;100.00;95947.53;5024942;28;20499;-72
2024/04/04 00:03:18;;;;;;;0.77;0.50;;;;;;;11.64;100.00;95949.53;5023046;28;20205;-74
2024/04/04 00:05:48;;;;;;;0.63;0.40;;;;;;;11.88;100.00;95941.22;5029102;28;20209;-72
2024/04/04 00:08:15;;;;;;;0.50;0.50;;;;;;;11.71;100.00;95945.13;5029315;28;20217;-73
2024/04/04 00:10:42;;;;;;;0.70;0.60;;;;;;;11.75;100.00;95946.41;5025540;28;20221;-76
2024/04/04 00:13:08;;;;;;;3.97;0.60;;;;;;;11.68;100.00;95940.22;5026862;28;20213;-74
2024/04/04 00:15:37;;;;;;;0.73;0.40;;;;;;;11.86;100.00;95940.56;5029317;28;20216;-72
2024/04/04 00:18:05;;;;;;;0.67;0.50;;;;;;;11.68;100.00;95943.69;5025371;28;20597;-73
2024/04/04 00:20:30;;;;;;;1.63;0.70;;;;;;;11.51;100.00;95946.78;5025152;28;20229;-71
2024/04/04 00:22:57;;;;;;;2.90;0.40;;;;;;;11.55;100.00;95944.59;5020086;28;20709;-76
2024/04/04 00:25:23;;;;;;;0.47;0.47;;;;;;;11.57;100.00;95938.94;5018002;28;20197;-74
2024/04/04 00:27:51;;;;;;;0.63;0.47;;;;;;;11.75;100.00;95941.13;5029165;28;20231;-71
2024/04/04 00:30:18;;;;;;;2.03;0.70;;;;;;;11.55;100.00;95943.56;5023563;28;20225;-72
2024/04/04 00:32:45;;;;;;;1.83;0.80;;;;;;;11.70;100.00;95949.59;5025834;28;20335;-72
2024/04/04 00:35:10;;;;;;;0.60;0.60;;;;;;;11.57;100.00;95943.41;5021902;28;20373;-75
2024/04/04 00:37:37;;;;;;;2.77;0.57;;;;;;;11.60;100.00;95946.44;5022873;28;20201;-76
2024/04/04 00:40:03;;;;;;;0.87;0.47;;;;;;;11.56;100.00;95942.56;5021060;28;20241;-74
2024/04/04 00:42:31;;;;;;;0.93;0.50;;;;;;;11.49;100.00;95940.84;5029746;28;20198;-73
2024/04/04 00:44:58;;;;;;;0.90;0.63;;;;;;;11.57;100.00;95938.13;5026872;28;20586;-72
2024/04/04 00:47:24;;;;;;;0.50;0.50;;;;;;;11.46;100.00;95950.97;5028385;28;20229;-72
2024/04/04 00:49:50;;;;;;;1.23;0.50;;;;;;;11.45;100.00;95951.97;5026415;28;20225;-75
2024/04/04 00:52:17;;;;;;;1.00;0.67;;;;;;;11.38;100.00;95949.28;5026809;28;20201;-73
2024/04/04 00:54:42;;;;;;;2.90;0.70;;;;;;;11.34;100.00;95955.09;5031462;28;20216;-72
2024/04/04 00:57:09;;;;;;;0.77;0.50;;;;;;;11.44;100.00;95959.06;5031609;28;20197;-73
2024/04/04 00:59:35;;;;;;;0.63;0.60;;;;;;;11.54;100.00;95945.59;5030852;28;20727;-75
2024/04/04 01:02:04;;;;;;;0.60;0.50;;;;;;;11.61;100.00;95955.19;5032110;28;20217;-71
2024/04/04 01:04:29;;;;;;;0.87;0.73;;;;;;;11.39;100.00;95948.28;5025957;28;20212;-72
2024/04/04 01:06:56;;;;;;;0.43;0.43;;;;;;;11.13;100.00;95958.53;5035540;28;20609;-72
2024/04/04 01:09:21;;;;;;;0.73;0.40;;;;;;;11.25;100.00;95958.88;5029454;28;20228;-75
2024/04/04 01:11:48;;;;;;;0.40;0.40;;;;;;;11.43;100.00;95957.44;5028810;28;20582;-71
2024/04/04 01:14:14;;;;;;;0.63;0.50;;;;;;;11.52;100.00;95960.78;5022803;28;20587;-74
2024/04/04 01:16:41;;;;;;;0.40;0.40;;;;;;;11.40;100.00;95967.53;5025817;28;20201;-73
2024/04/04 01:19:08;;;;;;;0.50;0.50;;;;;;;11.43;100.00;95952.16;5022671;28;20221;-74
2024/04/04 01:21:34;;;;;;;0.63;0.50;;;;;;;11.42;100.00;95968.16;5030343;28;20198;-72
2024/04/04 01:24:01;;;;;;;3.93;1.63;;;;;;;11.49;100.00;95966.41;5027014;28;20201;-72
2024/04/04 01:26:28;;;;;;;1.10;0.50;;;;;;;11.48;100.00;95970.88;5033259;28;20201;-74
2024/04/04 01:28:53;;;;;;;1.03;0.50;;;;;;;11.51;100.00;95964.41;5027089;28;20493;-72
2024/04/04 01:31:20;;;;;;;1.73;0.80;;;;;;;11.57;100.00;95970.59;5021520;28;20631;-76
2024/04/04 01:33:45;;;;;;;0.83;0.50;;;;;;;11.54;100.00;95977.25;5024675;28;20202;-72
2024/04/04 01:36:12;;;;;;;0.30;0.30;;;;;;;11.58;100.00;95987.22;5025499;28;20212;-74
2024/04/04 01:38:37;;;;;;;1.07;0.50;;;;;;;11.58;100.00;95987.22;5024473;28;20216;-77
2024/04/04 01:41:05;;;;;;;1.33;0.60;;;;;;;11.82;100.00;95979.72;5029408;28;20226;-71
2024/04/04 01:43:31;;;;;;;0.63;0.60;;;;;;;11.83;100.00;95984.00;5030194;28;20204;-75
2024/04/04 01:45:57;;;;;;;1.73;0.50;;;;;;;11.68;100.00;95979.81;5033349;28;20201;-76
2024/04/04 01:48:24;;;;;;;1.07;0.50;;;;;;;11.79;100.00;95981.97;5025746;28;20225;-74
2024/04/04 01:50:50;;;;;;;1.13;0.60;;;;;;;11.69;100.00;95979.63;5027729;28;21074;-76
2024/04/04 01:53:16;;;;;;;0.30;0.30;;;;;;;11.49;100.00;95998.06;5029999;28;20206;-75
2024/04/04 01:55:42;;;;;;;1.43;0.50;;;;;;;11.79;100.00;95984.59;5027305;28;20202;-72
2024/04/04 01:58:09;;;;;;;0.40;0.40;;;;;;;11.89;100.00;95985.06;5021871;28;20205;-75
2024/04/04 02:00:35;;;;;;;0.60;0.60;;;;;;;11.86;100.00;95985.44;5020776;28;20308;-72
2024/04/04 02:03:01;;;;;;;0.30;0.30;;;;;;;11.79;100.00;95989.88;5028602;28;20452;-76
2024/04/04 02:05:27;;;;;;;0.40;0.40;;;;;;;11.84;100.00;95987.47;5032712;28;20209;-76
2024/04/04 02:07:53;;;;;;;1.47;0.40;;;;;;;11.94;100.00;95993.22;5025773;28;20225;-74
2024/04/04 02:10:20;;;;;;;1.03;0.63;;;;;;;11.88;100.00;95994.81;5027427;28;20687;-71
2024/04/04 02:12:45;;;;;;;0.73;0.50;;;;;;;11.99;100.00;95986.38;5025543;28;20208;-71
2024/04/04 02:15:14;;;;;;;1.23;0.50;;;;;;;12.15;100.00;95985.28;5026480;28;20202;-72
2024/04/04 02:17:40;;;;;;;0.43;0.43;;;;;;;11.84;100.00;95998.03;5019271;28;20378;-71
2024/04/04 02:20:09;;;;;;;0.30;0.30;;;;;;;12.16;100.00;95986.94;5020349;28;20225;-72
2024/04/04 02:22:35;;;;;;;3.50;0.80;;;;;;;12.17;100.00;95992.00;5025375;28;20209;-72
2024/04/04 02:25:02;;;;;;;0.70;0.53;;;;;;;12.14;100.00;95992.38;5019131;28;20205;-71
2024/04/04 02:27:28;;;;;;;0.80;0.40;;;;;;;12.28;100.00;95981.72;5018899;28;20233;-72
2024/04/04 02:29:54;;;;;;;0.53;0.50;;;;;;;12.24;100.00;95991.06;5018034;28;20597;-72
2024/04/04 02:32:21;;;;;;;2.27;0.40;;;;;;;12.35;100.00;95993.13;5019281;28;20298;-72
2024/04/04 02:34:48;;;;;;;0.50;0.50;;;;;;;12.24;100.00;95996.34;5019578;28;20202;-72
2024/04/04 02:37:13;;;;;;;1.13;0.50;;;;;;;11.95;100.00;96001.00;5019640;28;20205;-72
2024/04/04 02:39:40;;;;;;;0.40;0.40;;;;;;;12.20;100.00;95995.06;5018410;28;20323;-70
2024/04/04 02:42:06;;;;;;;1.17;0.40;;;;;;;12.14;100.00;95997.66;5018789;28;20201;-69
2024/04/04 02:44:34;;;;;;;0.97;0.53;;;;;;;12.48;100.00;96001.16;5018440;28;20508;-71
2024/04/04 02:47:00;;;;;;;1.63;1.00;;;;;;;12.28;100.00;96009.94;5016981;28;20214;-71
2024/04/04 02:49:28;;;;;;;0.60;0.50;;;;;;;12.42;100.00;95995.81;5019141;28;20977;-72
2024/04/04 02:51:53;;;;;;;0.40;0.40;;;;;;;12.28;100.00;95996.75;5018691;28;20228;-71
2024/04/04 02:54:20;;;;;;;0.83;0.50;;;;;;;12.30;100.00;96000.03;5019517;28;20205;-71
2024/04/04 02:56:46;;;;;;;0.63;0.57;;;;;;;12.54;100.00;96005.66;5019450;28;20449;-70
2024/04/04 02:59:13;;;;;;;3.83;0.50;;;;;;;12.28;100.00;96004.66;5019036;28;20283;-70
2024/04/04 03:01:39;;;;;;;0.50;0.40;;;;;;;12.33;100.00;96004.91;5025246;28;20202;-71
2024/04/04 03:04:05;;;;;;;0.77;0.60;;;;;;;12.24;100.00;96012.19;5018665;28;20217;-70
2024/04/04 03:06:34;;;;;;;1.07;0.60;;;;;;;12.29;100.00;96014.25;5019195;28;20205;-71
2024/04/04 03:09:00;;;;;;;1.50;0.70;;;;;;;12.27;100.00;96016.25;5018561;28;20736;-70
2024/04/04 03:11:26;;;;;;;3.80;0.30;;;;;;;12.28;100.00;96010.78;5019403;28;20198;-71
2024/04/04 03:13:52;;;;;;;1.13;0.50;;;;;;;12.21;100.00;96012.56;5019768;28;20673;-72
2024/04/04 03:16:18;;;;;;;0.60;0.60;;;;;;;12.32;100.00;96019.13;5020879;28;20208;-72
2024/04/04 03:18:44;;;;;;;0.70;0.70;;;;;;;12.12;100.00;96014.69;5019401;28;20193;-71
2024/04/04 03:21:10;;;;;;;0.60;0.60;;;;;;;12.35;100.00;96013.47;5018684;28;20209;-72
2024/04/04 03:23:38;;;;;;;1.50;0.80;;;;;;;12.27;100.00;96001.22;5025804;28;20204;-72
2024/04/04 03:26:03;;;;;;;1.40;0.80;;;;;;;12.20;100.00;95989.78;5021854;28;20213;-71
2024/04/04 03:28:30;;;;;;;0.93;0.70;;;;;;;12.07;100.00;95999.44;5024808;28;20222;-72
2024/04/04 03:30:56;;;;;;;0.83;0.70;;;;;;;12.26;100.00;95993.50;5016928;28;20237;-71
2024/04/04 03:33:22;;;;;;;2.70;1.33;;;;;;;12.02;100.00;96001.03;5019281;28;20582;-72
2024/04/04 03:35:48;;;;;;;8.17;2.20;;;;;;;11.92;100.00;96000.53;5017442;28;20204;-72
2024/04/04 03:38:14;;;;;;;17.87;6.00;;;;;;;11.97;100.00;95992.88;5018261;28;20209;-70
2024/04/04 03:40:42;;;;;;;4.00;2.20;;;;;;;12.15;100.00;95996.66;5016816;28;20226;-72
2024/04/04 03:43:09;;;;;;;1.03;0.80;;;;;;;12.03;100.00;96002.66;5022400;28;20209;-71
2024/04/04 03:45:39;;;;;;;2.07;0.53;;;;;;;12.29;100.00;95996.53;5017776;28;20664;-72
2024/04/04 03:48:05;;;;;;;1.30;1.00;;;;;;;12.03;100.00;96008.75;5017535;28;20257;-71
2024/04/04 03:50:32;;;;;;;2.10;0.90;;;;;;;12.17;100.00;96000.75;5017161;28;20232;-70
2024/04/04 03:52:58;;;;;;;2.63;1.43;;;;;;;11.90;100.00;96006.03;5017301;28;20212;-72
2024/04/04 03:55:24;;;;;;;1.20;0.70;;;;;;;11.62;100.00;96005.16;5017913;28;20202;-71
2024/04/04 03:57:51;;;;;;;5.33;1.33;;;;;;;12.06;100.00;96003.09;5017379;28;20198;-70
2024/04/04 04:00:18;;;;;;;2.00;1.13;;;;;;;11.65;100.00;96009.25;5016706;28;20360;-70
2024/04/04 04:02:43;;;;;;;2.53;1.50;;;;;;;11.81;100.00;96011.59;5017152;28;20205;-70
2024/04/04 04:05:10;;;;;;;2.43;1.03;;;;;;;11.77;100.00;96013.00;5018191;28;20225;-72
2024/04/04 04:07:36;;;;;;;3.50;0.60;;;;;;;11.73;100.00;96017.81;5017324;28;20683;-71
2024/04/04 04:10:02;;;;;;;3.33;0.97;;;;;;;11.86;100.00;96007.41;5016630;28;20225;-72
2024/04/04 04:12:28;;;;;;;3.37;1.50;;;;;;;11.75;100.00;96010.53;5017360;28;20206;-71
2024/04/04 04:14:56;;;;;;;14.67;3.13;;;;;;;11.65;100.00;96020.59;5023931;28;20206;-72
2024/04/04 04:17:21;;;;;;;7.90;2.47;;;;;;;11.37;100.00;96016.22;5016647;28;20210;-71
2024/04/04 04:19:51;;;;;;;5.90;2.50;;;;;;;11.84;100.00;96009.41;5016571;28;20224;-70
2024/04/04 04:22:16;;;;;;;1.87;1.13;;;;;;;11.62;100.00;96013.06;5017332;28;20214;-71
2024/04/04 04:24:43;;;;;;;5.47;1.93;;;;;;;11.64;100.00;96018.97;5022325;28;20212;-71
2024/04/04 04:27:08;;;;;;;7.53;2.30;;;;;;;11.58;100.00;96016.25;5016532;28;20523;-72
2024/04/04 04:29:35;;;;;;;7.50;2.03;;;;;;;11.52;100.00;96016.19;5017513;28;20771;-72
2024/04/04 04:32:02;;;;;;;6.47;2.73;;;;;;;11.82;100.00;96011.41;5016425;28;20228;-72
2024/04/04 04:34:28;;;;;;;12.70;4.20;;;;;;;11.66;100.00;96016.16;5017392;28;20202;-70
2024/04/04 04:36:55;;;;;;;3.33;1.60;;;;;;;11.78;100.00;96004.06;5017473;28;20205;-71
2024/04/04 04:39:23;;;;;;;2.40;1.10;;;;;;;11.62;100.00;96004.31;5018164;28;20225;-72
2024/04/04 04:41:49;;;;;;;6.97;2.60;;;;;;;11.52;100.00;96006.47;5020844;28;20307;-70
2024/04/04 04:44:15;;;;;;;2.83;1.27;;;;;;;11.36;100.00;96011.13;5018573;28;20653;-71
2024/04/04 04:46:41;;;;;;;1.40;1.03;;;;;;;11.35;100.00;96007.66;5018198;28;20210;-70
2024/04/04 04:49:09;;;;;;;2.90;1.30;;;;;;;11.87;100.00;96010.84;5023906;28;20611;-71
2024/04/04 04:51:35;;;;;;;24.10;3.07;;;;;;;11.59;100.00;96009.97;5017751;28;20741;-71
2024/04/04 04:54:01;;;;;;;18.63;4.13;;;;;;;11.62;100.00;96009.59;5017400;28;20293;-69
2024/04/04 04:56:27;;;;;;;37.17;12.37;;;;;;;11.78;100.00;95999.59;5018031;28;20201;-72
2024/04/04 04:58:53;;;;;;;32.00;8.60;;;;;;;11.83;100.00;96004.31;5017977;28;20209;-71
2024/04/04 05:01:19;;;;;;;31.47;7.23;;;;;;;11.71;100.00;96011.09;5023025;28;20677;-72
2024/04/04 05:03:46;;;;;;;14.80;3.37;;;;;;;11.74;100.00;96013.38;5018522;28;20213;-70
2024/04/04 05:06:15;;;;;;;13.93;5.20;;;;;;;11.86;100.00;96007.41;5018851;28;20459;-70
2024/04/04 05:08:41;;;;;;;8.50;2.50;;;;;;;11.62;100.00;96013.06;5018260;28;20236;-70
2024/04/04 05:11:07;;;;;;;11.20;4.30;;;;;;;11.64;100.00;96010.25;5017869;28;20222;-72
2024/04/04 05:13:33;;;;;;;14.97;3.70;;;;;;;11.76;100.00;96017.47;5018546;28;20291;-71
2024/04/04 05:15:59;;;;;;;18.47;6.70;;;;;;;11.84;100.00;96008.59;5017352;28;20205;-69
2024/04/04 05:18:26;;;;;;;12.17;3.53;;;;;;;11.69;100.00;96013.13;5020387;28;20204;-71
2024/04/04 05:20:57;;;;;;;11.13;2.30;;;;;;;11.94;100.00;96003.78;5016256;28;20244;-71
2024/04/04 05:23:25;;;;;;;3.83;1.10;;;;;;;12.00;100.00;96008.31;5019054;28;20263;-70
2024/04/04 05:25:51;;;;;;;5.07;2.50;;;;;;;11.93;100.00;96004.81;5016299;28;20622;-69
2024/04/04 05:28:18;;;;;;;19.13;4.57;;;;;;;12.01;100.00;96009.97;5020532;28;20226;-70
2024/04/04 05:30:43;;;;;;;18.07;5.30;;;;;;;11.97;100.00;96006.06;5021002;28;20228;-69
2024/04/04 05:33:10;;;;;;;8.57;4.17;;;;;;;12.02;100.00;95999.19;5023572;28;20202;-71
2024/04/04 05:35:35;;;;;;;24.47;6.03;;;;;;;11.99;100.00;95996.13;5020840;28;20205;-71
2024/04/04 05:38:02;;;;;;;7.43;1.90;;;;;;;12.05;100.00;95996.16;5021006;28;20201;-71
2024/04/04 05:40:29;;;;;;;1.90;1.00;;;;;;;12.16;100.00;95990.38;5023678;28;20226;-71
2024/04/04 05:42:55;;;;;;;4.20;1.13;;;;;;;12.17;100.00;95998.09;5020948;28;20675;-72
2024/04/04 05:45:21;;;;;;;4.80;1.90;;;;;;;12.11;100.00;95995.41;5022127;28;20202;-72
2024/04/04 05:47:48;;;;;;;1.63;1.20;;;;;;;12.19;100.00;95997.91;5021528;28;20209;-71
2024/04/04 05:50:13;;;;;;;4.07;1.77;;;;;;;11.99;100.00;96002.22;5022031;28;20229;-71
2024/04/04 05:52:40;;;;;;;5.93;2.03;;;;;;;11.93;100.00;95999.53;5020707;28;20280;-72
2024/04/04 05:55:09;;;;;;;4.77;2.47;;;;;;;11.91;100.00;96007.63;5021597;28;20458;-71
2024/04/04 05:57:37;;;;;;;2.20;1.20;;;;;;;12.11;100.00;95999.88;5021306;28;20284;-72
2024/04/04 06:00:04;;;;;;;2.43;0.93;;;;;;;12.17;100.00;96000.75;5020358;28;20217;-71
2024/04/04 06:02:30;;;;;;;3.53;1.20;;;;;;;11.81;100.00;96004.53;5021392;28;20201;-72
2024/04/04 06:04:56;;;;;;;5.00;1.37;;;;;;;11.71;100.00;96006.66;5020458;28;20706;-72
2024/04/04 06:07:22;;;;;;;4.73;1.50;;;;;;;11.91;100.00;96009.47;5021726;28;20205;-70
2024/04/04 06:09:48;;;;;;;1.27;0.80;;;;;;;12.03;100.00;96000.84;5018778;28;20643;-72
2024/04/04 06:12:16;;;;;;;1.80;0.80;;;;;;;12.19;100.00;95993.44;5020878;28;20210;-71
2024/04/04 06:14:45;;;;;;;2.80;0.90;;;;;;;12.28;100.00;95980.88;5020539;28;20206;-71
2024/04/04 06:17:12;;;;;;;2.30;0.83;;;;;;;12.29;100.00;95990.47;5020508;28;20221;-71
2024/04/04 06:19:38;;;;;;;1.50;0.80;;;;;;;12.32;100.00;95987.41;5019987;28;20606;-70
2024/04/04 06:22:04;;;;;;;0.50;0.50;;;;;;;12.62;100.00;95988.84;5022272;28;20202;-70
2024/04/04 06:24:30;;;;;;;2.90;0.50;;;;;;;12.82;100.00;95986.09;5021862;28;20583;-71
2024/04/04 06:26:56;;;;;;;1.07;0.80;;;;;;;12.71;100.00;95988.47;5019990;28;20214;-71
2024/04/04 06:29:23;;;;;;;0.70;0.50;;;;;;;12.70;100.00;95986.03;5019723;28;20582;-71
2024/04/04 06:31:51;;;;;;;0.57;0.47;;;;;;;12.89;100.00;95996.72;5021538;28;20671;-70
2024/04/04 06:34:19;;;;;;;0.40;0.40;;;;;;;12.88;100.00;95998.56;5019974;28;20210;-70
2024/04/04 06:36:45;;;;;;;0.57;0.50;;;;;;;12.72;100.00;96003.31;5020941;28;20217;-71
2024/04/04 06:39:12;;;;;;;0.53;0.53;;;;;;;12.93;100.00;95996.16;5019046;28;20231;-70
2024/04/04 06:41:38;;;;;;;0.40;0.40;;;;;;;12.86;100.00;96007.72;5018377;28;20296;-70
2024/04/04 06:44:04;;;;;;;1.53;0.40;;;;;;;12.90;100.00;95993.88;5019907;28;20348;-71
2024/04/04 06:46:31;;;;;;;1.27;0.40;;;;;;;12.84;100.00;95999.94;5019999;28;20696;-71
2024/04/04 06:48:58;;;;;;;0.97;0.50;;;;;;;13.01;100.00;96003.91;5018011;28;20229;-70
2024/04/04 06:51:24;;;;;;;2.30;0.53;;;;;;;13.06;100.00;96004.13;5019361;28;20384;-71
2024/04/04 06:53:50;;;;;;;2.10;0.67;;;;;;;13.05;100.00;96004.34;5022548;28;20578;-70
2024/04/04 06:56:17;;;;;;;1.90;0.63;;;;;;;13.20;100.00;96010.28;5019135;28;20205;-70
2024/04/04 06:58:42;;;;;;;1.20;0.50;;;;;;;13.20;100.00;96007.63;5018581;28;20197;-70
2024/04/04 07:01:09;;;;;;;2.10;0.70;;;;;;;13.47;100.00;95994.28;5017313;28;20490;-70
2024/04/04 07:03:34;;;;;;;1.87;0.50;;;;;;;13.43;100.00;96006.31;5019034;28;20213;-70
2024/04/04 07:06:02;;;;;;;1.50;0.50;;;;;;;13.44;100.00;95998.16;5020295;28;20206;-70
2024/04/04 07:08:28;;;;;;;0.90;0.53;;;;;;;13.44;100.00;96002.59;5018730;28;20232;-70
2024/04/04 07:11:00;;;;;;;1.17;0.50;;;;;;;13.66;100.00;95999.63;5017509;28;20403;-70
2024/04/04 07:13:25;;;;;;;0.40;0.40;;;;;;;13.45;100.00;95994.50;5019052;28;20215;-69
2024/04/04 07:16:01;;;;;;;1.20;0.50;;;;;;;13.72;100.00;95990.88;5025139;28;20202;-69
2024/04/04 07:18:26;;;;;;;0.97;0.40;;;;;;;13.48;100.00;96001.22;5018197;28;20198;-70
2024/04/04 07:20:53;;;;;;;0.50;0.47;;;;;;;13.42;100.00;96002.81;5017214;28;20263;-70
2024/04/04 07:23:20;;;;;;;0.80;0.50;;;;;;;13.54;100.00;95998.59;5023649;28;20209;-70
2024/04/04 07:25:51;;;;;;;2.60;0.80;;;;;;;13.98;100.00;95991.69;5018702;28;20228;-69
2024/04/04 07:28:17;;;;;;;2.00;0.67;;;;;;;13.58;100.00;95989.22;5018456;28;20211;-69
2024/04/04 07:30:44;;;;;;;0.70;0.70;;;;;;;14.10;100.00;95984.81;5017099;28;20222;-70
2024/04/04 07:33:09;;;;;;;0.87;0.87;;;;;;;14.13;100.00;95983.59;5017835;28;20487;-71
2024/04/04 07:35:36;;;;;;;1.17;0.60;;;;;;;14.35;100.00;95977.03;5019708;28;20678;-71
2024/04/04 07:38:02;;;;;;;1.50;0.50;;;;;;;14.07;100.00;95990.47;5016945;28;20590;-70
2024/04/04 07:40:30;;;;;;;0.47;0.40;;;;;;;14.23;100.00;95994.56;5018155;28;20662;-69
2024/04/04 07:42:56;;;;;;;3.77;0.80;;;;;;;14.26;100.00;95992.34;5018096;28;20226;-70
2024/04/04 07:45:22;;;;;;;1.80;0.70;;;;;;;14.28;100.00;95992.13;5018451;28;20494;-70
2024/04/04 07:47:48;;;;;;;0.73;0.60;;;;;;;14.47;100.00;95986.00;5017307;28;20522;-70
2024/04/04 07:50:16;;;;;;;1.53;0.50;;;;;;;14.71;100.00;95994.09;5017141;28;20229;-70
2024/04/04 07:52:42;;;;;;;0.63;0.40;;;;;;;14.74;100.00;95991.84;5021395;28;20198;-71
2024/04/04 07:55:09;;;;;;;0.87;0.60;;;;;;;15.06;100.00;95993.59;5018292;28;20609;-71
2024/04/04 07:57:36;;;;;;;0.50;0.50;;;;;;;15.13;100.00;95991.69;5017880;28;20236;-72
2024/04/04 08:00:03;;;;;;;0.50;0.40;;;;;;;14.87;100.00;95983.84;5016805;28;20724;-72
2024/04/04 08:02:29;;;;;;;0.45;0.45;;;;;;;14.70;100.00;96001.25;5019283;28;20292;-71
2024/04/04 08:04:56;;;;;;;2.97;0.50;;;;;;;14.88;100.00;96000.56;5016954;28;20206;-72
2024/04/04 08:07:21;;;;;;;1.63;0.50;;;;;;;14.95;100.00;96001.38;5018197;28;20386;-72
2024/04/04 08:09:48;;;;;;;3.60;0.60;;;;;;;15.06;100.00;96012.16;5016660;28;20782;-70
2024/04/04 08:12:14;;;;;;;1.08;0.50;;;;;;;15.17;100.00;96016.78;5017178;28;20206;-70
2024/04/04 08:14:45;;;;;;;2.57;0.40;;;;;;;15.45;100.00;96014.66;5017845;28;20202;-71
2024/04/04 08:17:10;;;;;;;2.47;0.68;;;;;;;14.99;100.00;96014.00;5017896;28;20215;-71
2024/04/04 08:19:37;;;;;;;0.75;0.30;;;;;;;15.10;100.00;96021.31;5016685;28;20472;-71
2024/04/04 08:22:02;;;;;;;1.17;0.73;;;;;;;15.20;100.00;96013.75;5017593;28;20955;-69
2024/04/04 08:24:29;;;;;;;0.50;0.40;;;;;;;15.36;100.00;96022.06;5017841;28;20202;-71
2024/04/04 08:26:54;;;;;;;1.25;0.70;;;;;;;15.14;100.00;96019.88;5022400;28;20205;-70
2024/04/04 08:29:23;;;;;;;3.13;0.80;;;;;;;15.21;100.00;96023.38;5019411;28;20236;-70
2024/04/04 08:31:50;;;;;;;0.70;0.55;;;;;;;15.49;100.00;96021.19;5017461;28;20208;-71
2024/04/04 08:34:17;;;;;;;1.23;0.60;;;;;;;15.52;100.00;96039.38;5016808;28;20569;-70
2024/04/04 08:36:43;;;;;;;2.33;0.70;;;;;;;15.10;100.00;96031.13;5017201;28;20647;-69
2024/04/04 08:39:09;;;;;;;0.75;0.60;;;;;;;15.13;100.00;96015.59;5016941;28;20241;-71
2024/04/04 08:41:36;;;;;;;0.50;0.50;;;;;;;15.34;100.00;96018.81;5017404;28;20489;-71
2024/04/04 08:44:03;;;;;;;3.30;0.60;;;;;;;15.34;100.00;96028.63;5020535;28;20201;-70
2024/04/04 08:46:32;;;;;;;1.45;0.43;;;;;;;15.29;100.00;96039.06;5017181;28;20731;-71
2024/04/04 08:48:59;;;;;;;0.75;0.50;;;;;;;15.51;100.00;96040.38;5016716;28;20232;-70
2024/04/04 08:51:27;;;;;;;1.95;0.50;;;;;;;15.36;100.00;96035.34;5017108;28;20213;-71
2024/04/04 08:53:52;;;;;;;1.23;0.50;;;;;;;15.45;100.00;96034.09;5016736;28;20686;-71
2024/04/04 08:56:19;;;;;;;2.05;0.50;;;;;;;15.63;100.00;96034.19;5022318;28;20209;-71
2024/04/04 08:58:45;;;;;;;1.52;1.10;;;;;;;15.96;100.00;96030.31;5016873;28;21026;-70
2024/04/04 09:01:11;;;;;;;2.95;0.77;;;;;;;16.18;100.00;96028.13;5015732;28;20205;-72
2024/04/04 09:03:42;;;;;;;1.30;0.90;;;;;;;16.20;100.00;96018.88;5018806;28;20570;-72
2024/04/04 09:06:09;;;;;;;0.85;0.68;;;;;;;16.27;100.00;96030.31;5021893;28;20209;-71
2024/04/04 09:08:36;;;;;;;1.52;0.52;;;;;;;16.41;99.54;96015.88;5023082;28;20385;-70
2024/04/04 09:11:03;;;;;;;1.08;0.57;;;;;;;16.58;98.30;96011.63;5021271;28;20248;-71
2024/04/04 09:13:29;;;;;;;5.15;1.42;;;;;;;16.46;96.75;96023.19;5021304;28;20206;-71
2024/04/04 09:16:00;;;;;;;0.57;0.47;;;;;;;16.38;96.74;96029.63;5023195;28;20206;-71
2024/04/04 09:18:26;;;;;;;3.80;0.70;;;;;;;16.20;97.40;96026.03;5024878;28;20221;-71
2024/04/04 09:20:52;;;;;;;1.80;1.10;;;;;;;16.38;97.20;96018.16;5019599;28;20226;-71
2024/04/04 09:23:19;;;;;;;0.73;0.40;;;;;;;16.70;96.52;96024.00;5020964;28;20208;-71
2024/04/04 09:25:46;;;;;;;1.02;0.70;;;;;;;16.52;95.86;96017.81;5019990;28;20212;-71
2024/04/04 09:28:14;;;;;;;2.92;0.65;;;;;;;16.64;95.46;96008.09;5020888;28;20217;-71
2024/04/04 09:30:42;;;;;;;1.05;0.63;;;;;;;16.91;93.85;96012.13;5019650;28;20287;-71
2024/04/04 09:33:09;;;;;;;1.38;0.60;;;;;;;17.33;93.23;96010.19;5020530;28;20206;-71
2024/04/04 09:35:35;;;;;;;2.25;0.52;;;;;;;17.09;93.57;96010.25;5021018;28;20225;-70
2024/04/04 09:38:01;;;;;;;2.58;0.50;;;;;;;16.82;92.89;96003.59;5020452;28;20206;-71
2024/04/04 09:40:29;;;;;;;3.85;0.90;;;;;;;17.07;91.52;96008.84;5021444;28;20913;-72
2024/04/04 09:42:54;;;;;;;0.88;0.50;;;;;;;16.93;90.71;96010.88;5019860;28;20198;-70
2024/04/04 09:45:22;;;;;;;2.05;0.60;;;;;;;16.86;89.16;96014.63;5020536;28;20213;-72
2024/04/04 09:47:48;;;;;;;1.42;0.90;;;;;;;16.91;90.28;96014.78;5019545;28;20212;-70
2024/04/04 09:50:16;;;;;;;0.93;0.73;;;;;;;17.16;90.23;96014.47;5020259;28;20236;-71
2024/04/04 09:52:42;;;;;;;1.10;0.50;;;;;;;17.09;90.41;96015.59;5021269;28;20208;-71
2024/04/04 09:55:10;;;;;;;0.60;0.60;;;;;;;17.25;88.82;96007.84;5019829;28;20210;-71
2024/04/04 09:57:38;;;;;;;0.65;0.60;;;;;;;17.19;88.02;96011.38;5020202;28;20206;-71
2024/04/04 10:00:14;;;;;;;0.63;0.57;;;;;;;16.94;87.91;96015.16;5019917;28;20627;-71
2024/04/04 10:02:46;;;;;;;0.40;0.40;;;;;;;17.07;88.16;96012.34;5020938;28;20205;-70
2024/04/04 10:05:18;;;;;;;2.35;0.52;;;;;;;17.12;88.39;96012.50;5020404;28;20601;-72
2024/04/04 10:07:44;;;;;;;1.40;0.60;;;;;;;16.87;90.11;96011.75;5020026;28;20247;-70
2024/04/04 10:10:19;;;;;;;3.85;1.33;;;;;;;17.18;90.24;96011.59;5019631;28;20641;-72
2024/04/04 10:12:49;;;;;;;1.65;1.10;;;;;;;17.10;91.25;96010.03;5019726;28;20381;-70
2024/04/04 10:15:19;;;;;;;1.58;0.63;;;;;;;16.81;91.75;96009.16;5019444;28;20198;-71
2024/04/04 10:17:46;;;;;;;1.63;0.80;;;;;;;16.82;92.42;96000.94;5019357;28;20518;-72
2024/04/04 10:20:13;;;;;;;2.47;1.02;;;;;;;17.05;92.32;96001.09;5022124;28;20324;-70
2024/04/04 10:22:39;;;;;;;2.92;0.82;;;;;;;16.95;91.05;96008.78;5019089;28;20255;-72
2024/04/04 10:25:06;;;;;;;0.95;0.63;;;;;;;16.77;90.76;96002.63;5020170;28;20213;-71
2024/04/04 10:27:32;;;;;;;0.47;0.47;;;;;;;16.87;91.16;96002.94;5021576;28;20217;-71
2024/04/04 10:30:00;;;;;;;0.50;0.47;;;;;;;17.08;90.95;95990.81;5018779;28;20612;-71
2024/04/04 10:32:28;;;;;;;2.75;0.63;;;;;;;17.21;90.53;95990.66;5018665;28;20214;-72
2024/04/04 10:35:05;;;;;;;2.70;0.55;;;;;;;17.12;89.05;95994.66;5018871;28;20276;-71
2024/04/04 10:37:31;;;;;;;2.60;0.60;;;;;;;16.95;89.98;95992.00;5021101;28;20628;-71
2024/04/04 10:39:58;;;;;;;0.60;0.60;;;;;;;17.17;89.28;96000.13;5018167;28;20233;-71
2024/04/04 10:42:25;;;;;;;3.60;0.85;;;;;;;16.92;89.70;95990.59;5018576;28;20206;-73
2024/04/04 10:44:53;;;;;;;1.05;0.65;;;;;;;16.84;88.54;95987.41;5018598;28;20265;-71
2024/04/04 10:47:20;;;;;;;1.27;0.50;;;;;;;17.03;88.07;95987.22;5018285;28;20202;-71
2024/04/04 10:49:47;;;;;;;1.25;0.60;;;;;;;16.94;87.69;95987.72;5016738;28;20311;-71
2024/04/04 10:52:14;;;;;;;0.35;0.35;;;;;;;16.57;88.70;95980.72;5019700;28;20202;-72
2024/04/04 10:54:41;;;;;;;0.95;0.68;;;;;;;16.74;88.80;95976.47;5020517;28;20263;-71
2024/04/04 10:57:07;;;;;;;1.70;0.85;;;;;;;16.54;89.87;95976.66;5022632;28;20202;-69
2024/04/04 10:59:35;;;;;;;0.90;0.32;;;;;;;16.96;88.75;95983.00;5023164;28;21139;-71
2024/04/04 11:02:04;;;;;;;1.17;0.60;;;;;;;17.27;88.64;95976.50;5020548;28;20206;-71
2024/04/04 11:04:32;;;;;;;1.52;0.60;;;;;;;17.32;87.06;95968.66;5025750;28;20209;-71
2024/04/04 11:06:58;;;;;;;1.27;0.73;;;;;;;17.42;85.70;95973.44;5025605;28;20201;-71
2024/04/04 11:09:28;;;;;;;1.58;0.82;;;;;;;17.57;86.20;95979.97;5043943;28;20230;-71
2024/04/04 11:11:59;;;;;;;1.35;0.73;;;;;;;17.72;85.18;95973.19;5018972;28;20206;-73
2024/04/04 11:14:26;;;;;;;0.98;0.80;;;;;;;17.59;83.88;95977.09;5019199;28;20608;-73
2024/04/04 11:16:54;;;;;;;0.88;0.75;;;;;;;17.92;82.53;95973.72;5020477;28;20314;-73
2024/04/04 11:19:21;;;;;;;1.60;0.70;;;;;;;17.63;82.69;95967.59;5017703;28;20592;-75
2024/04/04 11:21:50;;;;;;;0.98;0.50;;;;;;;17.90;81.82;95975.78;5018212;28;20202;-73
2024/04/04 11:24:17;;;;;;;1.83;0.73;;;;;;;17.94;82.38;95973.50;5017738;28;20229;-73